Warm Springs, OR (97761)

8:04 AM PDT on September 05, 2015 (GMT -0700)
Warm Springs Elementary School | | Change Station
CLOSE
Current Station
Personal Weather Station
Location: Warm Springs, OR
Elevation: 1572 ft
Nearby Weather Stations

Elev 1572 ft 44.76 °N, 121.27 °W | Updated 3 minutes ago

Clear
Clear
43.3 °F
Feels Like 43 °F
N
0.0
Wind Variable Wind from WSW
Gusts 0.0 mph

Today
High -- | Low -- °F
--% Chance of Precip.
Yesterday
High -- | Low -- °F
Precip. -- in
6:32 AM 7:34 PM
Waning Gibbous, 48% visible
Pressure 30.09 in
Visibility 10.0 miles
Clouds Clear
Windchill 43 °F
Dew Point 40 °F
Humidity 87%
Rainfall 0.00 in
Snow Depth Not available.
UV 0.0 out of 12
Pollen 2.90 out of 12
Air Quality Not available.
Flu Activity Not available.
METAR KRDM 051456Z 16005KT 10SM CLR 04/02 A3008 RMK AO2 SLP190 T00440017 53017
Pressure 30.09 in
Visibility 10.0 miles
Clouds Clear
Windchill 43 °F
Dew Point 40 °F
Humidity 87%
Rainfall 0.00 in
Snow Depth Not available.
UV 0.0 out of 12
Pollen 2.90 out of 12
Air Quality Not available.
Flu Activity Not available.
METAR KRDM 051456Z 16005KT 10SM CLR 04/02 A3008 RMK AO2 SLP190 T00440017 53017

10-Day Weather Forecast

×

Almanac

Astronomy

Sep. 05, 2015 Rise Set
Actual Time
Civil Twilight
Nautical Twilight
Astronomical Twilight
Moon
Length of Visible Light
Length of Day
Tomorrow will be .
, % of the Moon is Illuminated

Today's Extremes

State Highs State Lows

Community

WunderPhotos

Upload Photos

1,852,480 photos uploaded!

WunderBlogs® & News

Nearby

Air Quality

  Air Quality AQ Index Pollutant
Not available.

Snow Depth

Station Depth Elevation

Earthquake Activity

City Distance Mag. Time & Date
Minimum magnitude displayed is 2.5.

Coastal Water Temperatures

Place Temperature

Stations

Nearby Weather Stations

Station Location Temp. Windchill Dew Point Humidity Wind Precip. Elev Updated Type